createdAt,value
2023-03-02T00:02:24.850Z,10.20
2023-03-02T00:04:51.345Z,10.20
2023-03-02T00:07:17.836Z,10.20
2023-03-02T00:09:44.325Z,10.20
2023-03-02T00:12:12.889Z,10.30
2023-03-02T00:14:39.401Z,10.20
2023-03-02T00:17:05.898Z,10.20
2023-03-02T00:19:32.398Z,10.20
2023-03-02T00:21:58.886Z,10.20
2023-03-02T00:24:25.388Z,10.20
2023-03-02T00:26:51.880Z,10.10
2023-03-02T00:29:18.340Z,10.20
2023-03-02T00:31:44.922Z,10.10
2023-03-02T00:34:11.489Z,10.20
2023-03-02T00:36:37.978Z,10.20
2023-03-02T00:39:04.471Z,10.20
2023-03-02T00:41:30.955Z,10.10
2023-03-02T00:43:57.445Z,10.10
2023-03-02T00:46:24.011Z,10.10
2023-03-02T00:48:50.499Z,10.20
2023-03-02T00:51:16.999Z,10.30
2023-03-02T00:53:43.525Z,10.20
2023-03-02T00:56:10.148Z,10.20
2023-03-02T00:58:36.621Z,10.20
2023-03-02T01:01:03.098Z,10.20
2023-03-02T01:03:29.604Z,10.10
2023-03-02T01:05:56.110Z,10.10
2023-03-02T01:08:22.606Z,10.10
2023-03-02T01:10:49.125Z,10.20
2023-03-02T01:13:19.031Z,10.20
2023-03-02T01:15:45.559Z,10.20
2023-03-02T01:18:12.258Z,10.20
2023-03-02T01:20:39.558Z,10.20
2023-03-02T01:23:06.034Z,10.20
2023-03-02T01:25:32.521Z,10.20
2023-03-02T01:27:59.021Z,10.20
2023-03-02T01:30:25.502Z,10.10
2023-03-02T01:32:51.966Z,10.10
2023-03-02T01:35:18.460Z,10.10
2023-03-02T01:37:49.131Z,10.10
2023-03-02T01:40:15.610Z,10.20
2023-03-02T01:42:42.090Z,10.10
2023-03-02T01:45:08.571Z,10.20
2023-03-02T01:47:35.070Z,10.20
2023-03-02T01:50:01.626Z,10.20
2023-03-02T01:52:28.138Z,10.20
2023-03-02T01:54:54.625Z,10.20
2023-03-02T01:57:21.112Z,10.20
2023-03-02T01:59:47.615Z,10.20
2023-03-02T02:02:14.082Z,10.20
2023-03-02T02:04:40.568Z,10.10
2023-03-02T02:07:07.052Z,10.10
2023-03-02T02:09:33.530Z,10.10
2023-03-02T02:12:00.012Z,10.00
2023-03-02T02:14:26.488Z,10.10
2023-03-02T02:16:53.054Z,10.10
2023-03-02T02:19:19.584Z,10.20
2023-03-02T02:21:46.089Z,10.10
2023-03-02T02:24:12.575Z,10.10
2023-03-02T02:26:39.103Z,10.00
2023-03-02T02:29:05.564Z,10.10
2023-03-02T02:31:32.106Z,10.10
2023-03-02T02:33:58.605Z,10.20
2023-03-02T02:36:31.291Z,10.10
2023-03-02T02:38:57.921Z,10.10
2023-03-02T02:41:24.391Z,10.10
2023-03-02T02:43:50.876Z,10.10
2023-03-02T02:46:17.444Z,10.10
2023-03-02T02:48:43.953Z,10.10
2023-03-02T02:51:13.040Z,10.20
2023-03-02T02:53:39.504Z,10.10
2023-03-02T02:56:05.980Z,10.10
2023-03-02T02:58:32.453Z,10.10
2023-03-02T03:00:58.985Z,10.10
2023-03-02T03:03:25.489Z,10.10
2023-03-02T03:05:52.000Z,10.10
2023-03-02T03:08:18.492Z,10.10
2023-03-02T03:10:44.984Z,10.00
2023-03-02T03:13:11.460Z,10.00
2023-03-02T03:15:37.962Z,10.00
2023-03-02T03:18:04.445Z,10.10
2023-03-02T03:20:31.095Z,10.00
2023-03-02T03:22:57.580Z,10.10
2023-03-02T03:25:24.065Z,10.10
2023-03-02T03:27:50.552Z,10.00
2023-03-02T03:30:17.061Z,10.00
2023-03-02T03:32:43.553Z,10.10
2023-03-02T03:35:10.032Z,10.00
2023-03-02T03:37:36.518Z,10.10
2023-03-02T03:40:02.990Z,10.10
2023-03-02T03:42:29.496Z,10.10
2023-03-02T03:44:55.999Z,10.10
2023-03-02T03:47:22.470Z,10.10
2023-03-02T03:49:48.954Z,10.00
2023-03-02T03:52:15.442Z,10.00
2023-03-02T03:54:41.914Z,10.00
2023-03-02T03:57:08.387Z,10.00
2023-03-02T03:59:34.844Z,10.00
2023-03-02T04:02:01.297Z,10.00
2023-03-02T04:04:31.302Z,10.00
2023-03-02T04:07:01.129Z,10.00
2023-03-02T04:09:31.186Z,10.00
2023-03-02T04:11:57.673Z,10.00
2023-03-02T04:14:24.162Z,9.90
2023-03-02T04:16:50.650Z,9.90
2023-03-02T04:19:19.080Z,9.90
2023-03-02T04:21:45.586Z,10.00
2023-03-02T04:24:12.069Z,10.00
2023-03-02T04:26:38.556Z,10.00
2023-03-02T04:29:05.027Z,9.90
2023-03-02T04:31:31.596Z,9.90
2023-03-02T04:33:58.122Z,10.00
2023-03-02T04:36:24.605Z,10.00
2023-03-02T04:38:51.062Z,10.00
2023-03-02T04:41:17.565Z,10.00
2023-03-02T04:43:44.041Z,10.00
2023-03-02T04:46:10.608Z,10.00
2023-03-02T04:48:37.109Z,10.10
2023-03-02T04:51:03.571Z,10.00
2023-03-02T04:53:30.055Z,10.10
2023-03-02T04:55:56.553Z,10.00
2023-03-02T04:58:23.023Z,10.00
2023-03-02T05:00:49.507Z,10.00
2023-03-02T05:03:16.012Z,10.00
2023-03-02T05:05:42.517Z,10.00
2023-03-02T05:08:09.008Z,10.00
2023-03-02T05:10:35.482Z,10.00
2023-03-02T05:13:01.966Z,10.10
2023-03-02T05:15:28.454Z,10.10
2023-03-02T05:17:55.168Z,10.00
2023-03-02T05:20:21.636Z,10.00
2023-03-02T05:22:48.106Z,10.00
2023-03-02T05:25:14.593Z,10.00
2023-03-02T05:27:41.086Z,10.00
2023-03-02T05:30:07.587Z,9.90
2023-03-02T05:32:34.175Z,9.90
2023-03-02T05:35:00.722Z,9.90
2023-03-02T05:37:27.222Z,9.90
2023-03-02T05:39:53.686Z,9.90
2023-03-02T05:42:20.164Z,9.90
2023-03-02T05:44:46.632Z,9.90
2023-03-02T05:47:13.260Z,9.90
2023-03-02T05:49:39.754Z,9.90
2023-03-02T05:52:06.237Z,9.80
2023-03-02T05:54:32.703Z,9.90
2023-03-02T05:56:59.179Z,10.00
2023-03-02T05:59:25.643Z,10.00
2023-03-02T06:01:52.141Z,10.00
2023-03-02T06:04:18.636Z,10.00
2023-03-02T06:06:45.145Z,9.90
2023-03-02T06:09:11.612Z,9.90
2023-03-02T06:11:38.072Z,9.90
2023-03-02T06:14:04.553Z,10.00
2023-03-02T06:16:31.535Z,9.90
2023-03-02T06:18:58.385Z,9.90
2023-03-02T06:21:24.862Z,9.90
2023-03-02T06:23:51.347Z,9.90
2023-03-02T06:26:17.825Z,9.90
2023-03-02T06:28:52.606Z,9.90
2023-03-02T06:31:20.063Z,10.00
2023-03-02T06:33:46.566Z,9.90
2023-03-02T06:36:13.127Z,9.90
2023-03-02T06:38:39.643Z,9.90
2023-03-02T06:41:06.128Z,9.80
2023-03-02T06:43:32.616Z,9.90
2023-03-02T06:45:59.102Z,9.90
2023-03-02T06:48:25.612Z,9.90
2023-03-02T06:50:52.066Z,9.90
2023-03-02T06:53:18.558Z,10.00
2023-03-02T06:55:45.032Z,9.90
2023-03-02T06:58:11.538Z,9.90
2023-03-02T07:00:38.002Z,9.80
2023-03-02T07:03:04.519Z,9.80
2023-03-02T07:05:31.004Z,9.80
2023-03-02T07:07:57.497Z,9.90
2023-03-02T07:10:23.966Z,9.80
2023-03-02T07:12:50.469Z,9.90
2023-03-02T07:15:16.931Z,9.80
2023-03-02T07:17:43.442Z,9.90
2023-03-02T07:20:09.930Z,9.80
2023-03-02T07:22:36.424Z,9.90
2023-03-02T07:25:02.908Z,9.90
2023-03-02T07:27:29.387Z,9.80
2023-03-02T07:29:55.873Z,9.90
2023-03-02T07:32:25.296Z,9.90
2023-03-02T07:34:51.821Z,9.90
2023-03-02T07:37:18.294Z,9.90
2023-03-02T07:39:44.769Z,9.80
2023-03-02T07:42:11.249Z,9.80
2023-03-02T07:44:37.746Z,9.80
2023-03-02T07:47:04.221Z,9.80
2023-03-02T07:49:30.708Z,9.80
2023-03-02T07:51:57.198Z,9.50
2023-03-02T07:54:23.682Z,9.80
2023-03-02T07:56:50.168Z,9.90
2023-03-02T07:59:16.667Z,9.80
2023-03-02T08:01:43.185Z,9.90
2023-03-02T08:04:09.706Z,9.80
2023-03-02T08:06:36.184Z,9.80
2023-03-02T08:09:02.655Z,9.90
2023-03-02T08:11:29.113Z,9.90
2023-03-02T08:13:55.606Z,9.70
2023-03-02T08:16:22.181Z,9.90
2023-03-02T08:18:48.686Z,9.90
2023-03-02T08:21:15.173Z,9.90
2023-03-02T08:23:41.676Z,9.90
2023-03-02T08:26:08.179Z,9.80
2023-03-02T08:28:34.635Z,9.80
2023-03-02T08:31:01.132Z,9.80
2023-03-02T08:33:27.622Z,9.90
2023-03-02T08:35:54.167Z,9.90
2023-03-02T08:38:20.640Z,10.00
2023-03-02T08:40:47.109Z,9.90
2023-03-02T08:43:13.577Z,9.90
2023-03-02T08:45:40.104Z,9.90
2023-03-02T08:48:06.584Z,10.00
2023-03-02T08:50:37.352Z,10.10
2023-03-02T08:53:03.829Z,10.00
2023-03-02T08:55:30.430Z,10.00
2023-03-02T08:57:56.994Z,10.00
2023-03-02T09:00:23.488Z,10.00
2023-03-02T09:02:49.956Z,10.10
2023-03-02T09:05:16.469Z,10.10
2023-03-02T09:07:42.940Z,10.10
2023-03-02T09:10:09.418Z,10.00
2023-03-02T09:12:35.916Z,10.10
2023-03-02T09:15:02.383Z,10.00
2023-03-02T09:17:28.864Z,10.10
2023-03-02T09:20:01.551Z,10.10
2023-03-02T09:22:28.046Z,10.10
2023-03-02T09:24:54.539Z,10.10
2023-03-02T09:27:21.069Z,10.10
2023-03-02T09:29:47.570Z,10.10
2023-03-02T09:32:14.143Z,10.10
2023-03-02T09:34:40.684Z,10.10
2023-03-02T09:37:07.180Z,10.20
2023-03-02T09:39:33.661Z,10.10
2023-03-02T09:42:00.178Z,10.00
2023-03-02T09:44:26.646Z,10.00
2023-03-02T09:46:53.136Z,10.00
2023-03-02T09:49:19.610Z,10.10
2023-03-02T09:51:46.106Z,10.10
2023-03-02T09:54:13.416Z,10.00
2023-03-02T09:56:40.051Z,10.10
2023-03-02T09:59:06.533Z,10.10
2023-03-02T10:01:33.130Z,10.00
2023-03-02T10:03:59.661Z,10.00
2023-03-02T10:06:26.180Z,10.10
2023-03-02T10:08:52.682Z,10.10
2023-03-02T10:11:19.166Z,10.10
2023-03-02T10:13:47.462Z,10.10
2023-03-02T10:16:14.343Z,10.10
2023-03-02T10:18:40.914Z,10.10
2023-03-02T10:21:07.508Z,10.10
2023-03-02T10:23:37.427Z,10.20
2023-03-02T10:26:03.971Z,10.20
2023-03-02T10:28:30.440Z,10.20
2023-03-02T10:30:57.009Z,10.20
2023-03-02T10:33:23.506Z,10.30
2023-03-02T10:35:50.058Z,10.30
2023-03-02T10:38:16.572Z,10.30
2023-03-02T10:40:43.042Z,10.30
2023-03-02T10:43:09.523Z,10.30
2023-03-02T10:45:36.012Z,10.30
2023-03-02T10:48:02.492Z,10.30
2023-03-02T10:50:28.975Z,10.40
2023-03-02T10:53:00.128Z,10.30
2023-03-02T10:55:27.643Z,10.30
2023-03-02T10:57:54.146Z,10.30
2023-03-02T11:00:20.614Z,10.30
2023-03-02T11:02:47.135Z,10.20
2023-03-02T11:05:13.658Z,10.20
2023-03-02T11:07:40.126Z,10.10
2023-03-02T11:10:06.619Z,10.10
2023-03-02T11:12:33.127Z,10.10
2023-03-02T11:14:59.609Z,10.20
2023-03-02T11:17:26.082Z,10.20
2023-03-02T11:19:52.559Z,10.20
2023-03-02T11:22:19.035Z,10.20
2023-03-02T11:24:49.456Z,10.20
2023-03-02T11:27:15.935Z,10.30
2023-03-02T11:29:42.434Z,10.30
2023-03-02T11:32:09.069Z,10.30
2023-03-02T11:34:35.588Z,10.30
2023-03-02T11:37:02.088Z,10.40
2023-03-02T11:39:28.571Z,10.30
2023-03-02T11:41:55.096Z,10.30
2023-03-02T11:44:21.572Z,10.30
2023-03-02T11:46:48.053Z,10.30
2023-03-02T11:49:14.551Z,10.40
2023-03-02T11:51:50.087Z,10.40
2023-03-02T11:54:25.502Z,10.40
2023-03-02T11:56:51.992Z,10.40
2023-03-02T11:59:18.486Z,10.40
2023-03-02T12:01:44.992Z,10.30
2023-03-02T12:04:11.606Z,10.40
2023-03-02T12:06:38.087Z,10.40
2023-03-02T12:09:04.615Z,10.40
2023-03-02T12:11:31.102Z,10.40
2023-03-02T12:13:57.609Z,10.30
2023-03-02T12:16:24.145Z,10.40
2023-03-02T12:18:50.637Z,10.40
2023-03-02T12:21:17.105Z,10.40
2023-03-02T12:23:43.578Z,10.40
2023-03-02T12:26:10.069Z,10.40
2023-03-02T12:28:36.561Z,10.40
2023-03-02T12:31:03.114Z,10.40
2023-03-02T12:33:29.611Z,10.40
2023-03-02T12:35:56.092Z,10.40
2023-03-02T12:38:22.605Z,10.20
2023-03-02T12:40:49.114Z,10.40
2023-03-02T12:43:15.625Z,10.40
2023-03-02T12:45:42.152Z,10.40
2023-03-02T12:48:08.681Z,10.40
2023-03-02T12:50:35.217Z,10.50
2023-03-02T12:53:01.713Z,10.30
2023-03-02T12:55:28.179Z,10.40
2023-03-02T12:57:54.659Z,10.40
2023-03-02T13:00:21.184Z,10.40
2023-03-02T13:02:47.706Z,10.40
2023-03-02T13:05:14.238Z,10.50
2023-03-02T13:07:40.780Z,10.40
2023-03-02T13:10:07.301Z,10.50
2023-03-02T13:12:33.785Z,10.50
2023-03-02T13:15:00.279Z,10.50
2023-03-02T13:17:26.750Z,10.50
2023-03-02T13:19:53.227Z,10.50
2023-03-02T13:22:19.782Z,10.50
2023-03-02T13:24:46.280Z,10.50
2023-03-02T13:27:13.572Z,10.50
2023-03-02T13:29:40.053Z,10.50
2023-03-02T13:32:06.732Z,10.50
2023-03-02T13:34:33.247Z,10.50
2023-03-02T13:36:59.736Z,10.50
2023-03-02T13:39:26.218Z,10.50
2023-03-02T13:41:52.711Z,10.50
2023-03-02T13:44:19.268Z,10.50
2023-03-02T13:46:45.756Z,10.50
2023-03-02T13:49:12.242Z,10.50
2023-03-02T13:51:38.738Z,10.60
2023-03-02T13:54:05.204Z,10.50
2023-03-02T13:56:32.181Z,10.60
2023-03-02T13:58:58.853Z,10.60
2023-03-02T14:01:25.402Z,10.60
2023-03-02T14:03:51.934Z,10.60
2023-03-02T14:06:18.548Z,10.60
2023-03-02T14:08:45.036Z,10.60
2023-03-02T14:11:13.617Z,10.60
2023-03-02T14:13:40.087Z,10.60
2023-03-02T14:16:06.605Z,10.60
2023-03-02T14:18:33.122Z,10.60
2023-03-02T14:20:59.651Z,10.60
2023-03-02T14:23:26.201Z,10.60
2023-03-02T14:25:55.630Z,10.60
2023-03-02T14:28:24.995Z,10.60
2023-03-02T14:30:51.488Z,10.60
2023-03-02T14:33:18.004Z,10.60
2023-03-02T14:35:44.550Z,10.70
2023-03-02T14:38:11.047Z,10.70
2023-03-02T14:40:37.643Z,10.70
2023-03-02T14:43:04.159Z,10.70
2023-03-02T14:45:31.038Z,10.70
2023-03-02T14:47:57.588Z,10.70
2023-03-02T14:50:24.067Z,10.70
2023-03-02T14:52:50.539Z,10.70
2023-03-02T14:55:17.035Z,10.70
2023-03-02T14:57:43.519Z,10.80
2023-03-02T15:00:09.998Z,10.80
2023-03-02T15:02:36.682Z,10.80
2023-03-02T15:05:03.188Z,10.80
2023-03-02T15:07:29.691Z,10.80
2023-03-02T15:09:56.208Z,10.80
2023-03-02T15:12:22.726Z,10.80
2023-03-02T15:14:49.263Z,10.80
2023-03-02T15:17:15.756Z,10.80
2023-03-02T15:19:42.232Z,10.80
2023-03-02T15:22:08.713Z,10.90
2023-03-02T15:24:35.169Z,10.90
2023-03-02T15:27:01.653Z,10.90
2023-03-02T15:29:28.139Z,10.90
2023-03-02T15:31:54.731Z,10.90
2023-03-02T15:34:21.267Z,10.90
2023-03-02T15:36:47.772Z,11.00
2023-03-02T15:39:14.256Z,11.00
2023-03-02T15:41:40.746Z,11.00
2023-03-02T15:44:07.220Z,11.00
2023-03-02T15:46:33.741Z,11.00
2023-03-02T15:49:00.218Z,11.00
2023-03-02T15:51:26.712Z,11.00
2023-03-02T15:53:53.192Z,11.10
2023-03-02T15:56:19.665Z,11.00
2023-03-02T15:58:46.129Z,11.00
2023-03-02T16:01:12.717Z,11.10
2023-03-02T16:03:39.250Z,11.10
2023-03-02T16:06:05.757Z,11.10
2023-03-02T16:08:32.238Z,11.10
2023-03-02T16:10:58.895Z,11.10
2023-03-02T16:13:25.395Z,11.10
2023-03-02T16:15:51.886Z,11.10
2023-03-02T16:18:18.375Z,11.10
2023-03-02T16:20:44.855Z,11.10
2023-03-02T16:23:11.374Z,11.10
2023-03-02T16:25:37.835Z,11.10
2023-03-02T16:28:04.431Z,11.10
2023-03-02T16:30:30.942Z,11.10
2023-03-02T16:32:57.419Z,11.10
2023-03-02T16:35:23.893Z,11.10
2023-03-02T16:37:50.408Z,11.10
2023-03-02T16:40:16.870Z,11.10
2023-03-02T16:42:43.357Z,11.20
2023-03-02T16:45:09.868Z,11.10
2023-03-02T16:47:36.348Z,11.10
2023-03-02T16:50:02.825Z,11.10
2023-03-02T16:52:29.328Z,11.10
2023-03-02T16:54:55.801Z,11.10
2023-03-02T16:57:22.277Z,11.10
2023-03-02T16:59:48.730Z,11.10
2023-03-02T17:02:15.217Z,11.10
2023-03-02T17:04:41.780Z,11.10
2023-03-02T17:07:08.310Z,11.10
2023-03-02T17:09:34.785Z,11.10
2023-03-02T17:12:01.264Z,11.10
2023-03-02T17:14:27.759Z,11.10
2023-03-02T17:16:54.257Z,11.10
2023-03-02T17:19:25.959Z,11.10
2023-03-02T17:21:55.792Z,11.10
2023-03-02T17:24:22.278Z,11.10
2023-03-02T17:26:48.770Z,11.10
2023-03-02T17:29:15.256Z,11.10
2023-03-02T17:31:41.742Z,11.10
2023-03-02T17:34:08.232Z,11.10
2023-03-02T17:36:36.693Z,11.10
2023-03-02T17:39:07.799Z,11.10
2023-03-02T17:41:37.886Z,11.00
2023-03-02T17:44:04.385Z,11.00
2023-03-02T17:46:30.882Z,11.10
2023-03-02T17:48:57.392Z,11.00
2023-03-02T17:51:23.883Z,11.00
2023-03-02T17:53:50.364Z,11.10
2023-03-02T17:56:16.844Z,11.10
2023-03-02T17:58:45.380Z,11.00
2023-03-02T18:01:12.032Z,11.00
2023-03-02T18:03:38.640Z,11.00
2023-03-02T18:06:05.227Z,11.00
2023-03-02T18:08:31.698Z,11.00
2023-03-02T18:10:58.158Z,11.00
2023-03-02T18:13:24.601Z,11.00
2023-03-02T18:15:51.117Z,11.00
2023-03-02T18:18:17.625Z,11.00
2023-03-02T18:20:44.094Z,11.00
2023-03-02T18:23:10.581Z,11.00
2023-03-02T18:25:37.052Z,10.90
2023-03-02T18:28:03.516Z,10.90
2023-03-02T18:30:29.987Z,10.90
2023-03-02T18:32:56.466Z,11.00
2023-03-02T18:35:22.952Z,11.00
2023-03-02T18:37:49.539Z,11.00
2023-03-02T18:40:16.098Z,11.00
2023-03-02T18:42:42.570Z,10.90
2023-03-02T18:45:09.056Z,10.90
2023-03-02T18:47:35.533Z,11.00
2023-03-02T18:50:02.092Z,11.00
2023-03-02T18:52:28.604Z,11.00
2023-03-02T18:54:55.095Z,11.00
2023-03-02T18:57:21.574Z,11.00
2023-03-02T18:59:48.065Z,11.00
2023-03-02T19:02:14.597Z,11.00
2023-03-02T19:04:41.135Z,11.00
2023-03-02T19:07:07.628Z,10.90
2023-03-02T19:09:34.112Z,10.90
2023-03-02T19:12:00.584Z,10.90
2023-03-02T19:14:27.081Z,10.90
2023-03-02T19:16:53.559Z,10.90
2023-03-02T19:19:20.081Z,10.90
2023-03-02T19:21:46.556Z,10.90
2023-03-02T19:24:13.034Z,10.90
2023-03-02T19:26:39.514Z,10.90
2023-03-02T19:29:06.001Z,10.90
2023-03-02T19:31:32.521Z,10.90
2023-03-02T19:33:59.027Z,10.90
2023-03-02T19:36:25.513Z,10.90
2023-03-02T19:38:51.988Z,10.90
2023-03-02T19:41:18.481Z,10.90
2023-03-02T19:43:44.960Z,10.90
2023-03-02T19:46:11.465Z,10.90
2023-03-02T19:48:37.993Z,10.90
2023-03-02T19:51:04.461Z,10.90
2023-03-02T19:53:30.935Z,10.90
2023-03-02T19:55:57.438Z,10.80
2023-03-02T19:58:23.902Z,10.80
2023-03-02T20:00:50.391Z,10.80
2023-03-02T20:03:16.855Z,10.80
2023-03-02T20:05:43.345Z,10.80
2023-03-02T20:08:09.821Z,10.80
2023-03-02T20:10:36.309Z,10.80
2023-03-02T20:13:02.799Z,10.80
2023-03-02T20:15:29.288Z,10.80
2023-03-02T20:17:55.763Z,10.80
2023-03-02T20:20:25.913Z,10.80
2023-03-02T20:22:55.905Z,10.80
2023-03-02T20:25:25.924Z,10.80
2023-03-02T20:27:52.394Z,10.80
2023-03-02T20:30:18.870Z,10.80
2023-03-02T20:32:45.355Z,10.80
2023-03-02T20:35:13.866Z,10.80
2023-03-02T20:37:40.340Z,10.80
2023-03-02T20:40:06.804Z,10.80
2023-03-02T20:42:33.279Z,10.80
2023-03-02T20:44:59.829Z,10.70
2023-03-02T20:47:26.337Z,10.70
2023-03-02T20:49:52.813Z,10.80
2023-03-02T20:52:19.288Z,10.70
2023-03-02T20:54:45.764Z,10.80
2023-03-02T20:57:13.941Z,10.70
2023-03-02T20:59:40.413Z,10.70
2023-03-02T21:02:06.909Z,10.70
2023-03-02T21:04:33.484Z,10.70
2023-03-02T21:06:59.995Z,10.70
2023-03-02T21:09:26.481Z,10.70
2023-03-02T21:11:55.953Z,10.70
2023-03-02T21:14:22.469Z,10.70
2023-03-02T21:16:48.948Z,10.70
2023-03-02T21:19:15.427Z,10.70
2023-03-02T21:21:42.468Z,10.70
2023-03-02T21:24:09.020Z,10.70
2023-03-02T21:26:35.481Z,10.60
2023-03-02T21:29:01.957Z,10.60
2023-03-02T21:31:28.445Z,10.60
2023-03-02T21:33:54.938Z,10.60
2023-03-02T21:36:21.430Z,10.60
2023-03-02T21:38:49.927Z,10.60
2023-03-02T21:41:16.419Z,10.60
2023-03-02T21:43:42.899Z,10.60
2023-03-02T21:46:09.406Z,10.60
2023-03-02T21:48:35.896Z,10.60
2023-03-02T21:51:08.005Z,10.60
2023-03-02T21:53:34.488Z,10.60
2023-03-02T21:56:00.971Z,10.60
2023-03-02T21:58:27.445Z,10.60
2023-03-02T22:00:53.917Z,10.60
2023-03-02T22:03:20.417Z,10.60
2023-03-02T22:05:46.940Z,10.50
2023-03-02T22:08:13.431Z,10.60
2023-03-02T22:10:39.898Z,10.60
2023-03-02T22:13:06.393Z,10.60
2023-03-02T22:15:32.875Z,10.60
2023-03-02T22:17:59.334Z,10.60
2023-03-02T22:20:25.823Z,10.60
2023-03-02T22:22:52.301Z,10.60
2023-03-02T22:25:18.771Z,10.60
2023-03-02T22:27:45.231Z,10.60
2023-03-02T22:30:11.692Z,10.50
2023-03-02T22:32:38.173Z,10.60
2023-03-02T22:35:04.832Z,10.60
2023-03-02T22:37:31.386Z,10.60
2023-03-02T22:39:57.873Z,10.60
2023-03-02T22:42:24.348Z,10.60
2023-03-02T22:44:50.822Z,10.50
2023-03-02T22:47:17.291Z,10.60
2023-03-02T22:49:43.766Z,10.50
2023-03-02T22:52:10.249Z,10.60
2023-03-02T22:54:36.738Z,10.50
2023-03-02T22:57:03.203Z,10.50
2023-03-02T22:59:29.680Z,10.60
2023-03-02T23:01:56.147Z,10.60
2023-03-02T23:04:22.679Z,10.60
2023-03-02T23:06:49.250Z,10.60
2023-03-02T23:09:15.741Z,10.60
2023-03-02T23:11:42.263Z,10.60
2023-03-02T23:14:08.767Z,10.50
2023-03-02T23:16:35.347Z,10.50
2023-03-02T23:19:01.884Z,10.50
2023-03-02T23:21:32.089Z,10.50
2023-03-02T23:23:58.581Z,10.50
2023-03-02T23:26:25.100Z,10.50
2023-03-02T23:28:51.602Z,10.50
2023-03-02T23:31:18.272Z,10.50
2023-03-02T23:33:44.883Z,10.50
2023-03-02T23:36:11.384Z,10.50
2023-03-02T23:38:37.888Z,10.50
2023-03-02T23:41:04.402Z,10.50
2023-03-02T23:43:30.891Z,10.50
2023-03-02T23:45:57.438Z,10.60
2023-03-02T23:48:23.977Z,10.50
2023-03-02T23:50:50.479Z,10.50
2023-03-02T23:53:17.029Z,10.50
2023-03-02T23:55:43.535Z,10.50
2023-03-02T23:58:10.037Z,10.50
